Auxvasse, MO

9:50 PM CDT on September 14, 2014 (GMT -0500)
Near Lakeview Lake | Change Station
CLOSE
Current Station
Personal Weather Station
Location: Mexico, MO
Elevation: 817 ft
Nearby Weather Stations

Elev 817 ft 39.16 °N, 91.89 °W | Updated 1 second ago

Mostly Cloudy
Mostly Cloudy
60.0 °F
Feels Like 60.0 °F
N
0.0
Wind Variable Wind from South
Gusts 0.0 mph

Today
High -- | Low -- °F
--% Chance of Precip.
Yesterday
High -- | Low -- °F
Precip. -- in
6:48 AM 7:17 PM
Waning Gibbous, 60% visible
Pressure 30.16 in
Visibility 10.0 miles
Clouds Mostly Cloudy 5500 ft
Dew Point 54 °F
Humidity 82%
Rainfall 0.00 in
Snow Depth Not available.
UV 0 out of 12
Pollen 7.10 out of 12
Air Quality Not available.
Flu Activity Not available.
METAR KCOU 150154Z AUTO 14006KT 10SM BKN055 16/12 A3016 RMK AO2 SLP212 T01610117 $

More Conditions Fewer Conditions

Pressure 30.16 in
Visibility 10.0 miles
Clouds Mostly Cloudy 5500 ft
Dew Point 54 °F
Humidity 82%
Rainfall 0.00 in
Snow Depth Not available.
UV 0 out of 12
Pollen 7.10 out of 12
Air Quality Not available.
Flu Activity Not available.
METAR KCOU 150154Z AUTO 14006KT 10SM BKN055 16/12 A3016 RMK AO2 SLP212 T01610117 $

More Conditions Fewer Conditions

10-Day Weather Forecast

Almanac

Astronomy

Sep. 14, 2014 Rise Set
Actual Time 6:48 AM CDT 7:17 PM CDT
Civil Twilight 6:21 AM CDT 7:44 PM CDT
Nautical Twilight 5:49 AM CDT 8:15 PM CDT
Astronomical Twilight 5:17 AM CDT 8:47 PM CDT
Moon 11:13 PM CDT (9/14) 12:51 PM CDT (9/14)
Length of Visible Light 13h 23m
Length of Day
12h 29m
Tomorrow will be 2m 31s shorter.
Waning Gibbous, 60% of the Moon is Illuminated
Today
Waning Gibbous
Sep 15
Last Quarter
Sep 24
New
Oct 1
First Quarter
Oct 8
Full

Today's Extremes

State Highs State Lows

Community

WunderPhotos

Upload Photos

1,753,385 photos uploaded!

Nearby

Snow Depth

Station Depth Elevation
No new snow has been reported.

Earthquake Activity

City Distance Mag. Time & Date
No recent earthquake activity has been reported nearby.
Minimum magnitude displayed is 2.5.

Coastal Water Temperatures

Place Temperature
No Stations Reporting

Nearby Weather Stations